Flight Track Log - Related Links

Times and Time Zones

All times are in EDT time to prevent confusion due to time zone crossing. See the SWA558 flight status page for this flight to view local times or setup timezone preferences in your user account.

Time Position Orientation Groundspeed Altitude Reporting Facility
EDT Latitude Longitude Course Direction KTS MPH feet Rate Location/Type
Tue 12:26:51 PM 26.6694 -81.7289 346° North 215 247 5,200  Level Miami Center
Tue 12:27:51 PM 26.7444 -81.7319 358° North 241 277 8,700 3,500 Climbing Miami Center
Tue 12:28:51 PM 26.8236 -81.7353 358° North 266 306 12,200 3,200 Climbing Miami Center
Tue 12:29:51 PM 26.9050 -81.7433 355° North 278 320 15,100 2,250 Climbing Miami Center
Tue 12:30:00 PM 27.0439 -81.7442 340° North  Level FlightAware Approximate
Tue 12:30:51 PM 26.9967 -81.7447 359° North 304 350 16,700  Level Miami Center
Tue 12:31:00 PM 27.1402 -81.7850 347° North  Level FlightAware Approximate
Tue 12:31:51 PM 27.1000 -81.7725 347° North 358 412 18,900  Level Miami Center
Tue 12:32:00 PM 27.2405 -81.8116 346° North  Level FlightAware Approximate
Tue 12:32:51 PM 27.2033 -81.8072 343° North 383 441 21,300  Level Miami Center
Tue 12:33:51 PM 27.3003 -81.8369 345° North 395 455 23,600 2,150 Climbing Miami Center
Tue 12:34:51 PM 27.4097 -81.8744 343° North 400 460 25,600 1,862 Climbing Miami Center
Tue 12:36:45 PM 27.6144 -81.9489 342° North 405 466 29,000 1,862 Climbing Jacksonville Center
Tue 12:37:45 PM 27.7336 -81.9947 341° North 423 487 31,000 1,800 Climbing Jacksonville Center
Tue 12:38:45 PM 27.8672 -82.0100 354° North 435 501 32,600 1,500 Climbing Jacksonville Center
Tue 12:39:45 PM 27.9842 -82.0206 355° North 435 501 34,000 700 Climbing Jacksonville Center
Tue 12:40:45 PM 28.0911 -82.0808 334° Northwest 416 479 34,000  Level Jacksonville Center
Tue 12:41:45 PM 28.1936 -82.1461 331° Northwest 416 479 34,000 800 Level Jacksonville Center
Tue 12:42:45 PM 28.2942 -82.2089 331° Northwest 416 479 35,600 1,900 Climbing Jacksonville Center
Tue 12:43:45 PM 28.3906 -82.2697 331° Northwest 410 472 37,800 1,200 Climbing Jacksonville Center
Tue 12:44:45 PM 28.4847 -82.3281 331° Northwest 397 457 38,000 100 Climbing Jacksonville Center
Tue 12:45:45 PM 28.5767 -82.3914 329° Northwest 392 451 38,000  Level Jacksonville Center
Tue 12:46:45 PM 28.6708 -82.4500 331° Northwest 392 451 38,000  Level Jacksonville Center
Tue 12:47:45 PM 28.7669 -82.5089 332° Northwest 387 445 38,000  Level Jacksonville Center
Tue 12:48:45 PM 28.8592 -82.5703 330° Northwest 387 445 38,000  Level Jacksonville Center
Tue 12:49:45 PM 28.9553 -82.6314 331° Northwest 387 445 38,000  Level Jacksonville Center
Tue 12:50:45 PM 29.0472 -82.6908 331° Northwest 382 440 38,000  Level Jacksonville Center
Tue 12:51:45 PM 29.1411 -82.7547 329° Northwest 382 440 38,000  Level Jacksonville Center
Tue 12:52:45 PM 29.2353 -82.8139 331° Northwest 382 440 38,000  Level Jacksonville Center
Tue 12:53:45 PM 29.3250 -82.8736 330° Northwest 382 440 38,000  Level Jacksonville Center
Tue 12:54:45 PM 29.4189 -82.9331 331° Northwest 382 440 38,000  Level Jacksonville Center
Tue 12:55:45 PM 29.5044 -82.9903 330° Northwest 387 445 38,000  Level Jacksonville Center
Tue 12:56:45 PM 29.5983 -83.0503 331° Northwest 392 451 38,000  Level Jacksonville Center
Tue 12:57:45 PM 29.7006 -83.0983 338° Northwest 386 444 38,000  Level Jacksonville Center
Tue 12:58:45 PM 29.8050 -83.1464 338° Northwest 386 444 38,000  Level Jacksonville Center
Tue 12:59:45 PM 29.9050 -83.1944 337° Northwest 391 450 38,000  Level Jacksonville Center
Tue 01:00:45 PM 30.0092 -83.2428 338° Northwest 397 457 38,000  Level Jacksonville Center
Tue 01:01:45 PM 30.1114 -83.2886 339° North 397 457 38,000  Level Jacksonville Center
Tue 01:02:45 PM 30.2136 -83.3350 339° North 397 457 38,000  Level Jacksonville Center
Tue 01:03:45 PM 30.3158 -83.3811 339° North 397 457 38,000  Level Jacksonville Center
Tue 01:04:45 PM 30.4178 -83.4297 338° Northwest 397 457 38,000  Level Jacksonville Center
Tue 01:05:45 PM 30.5178 -83.4786 337° Northwest 392 451 38,000  Level Jacksonville Center
Tue 01:06:45 PM 30.6200 -83.5275 338° Northwest 392 451 38,000  Level Jacksonville Center
Tue 01:07:45 PM 30.7281 -83.5789 338° Northwest 386 444 38,000  Level Jacksonville Center
Tue 01:08:45 PM 30.8281 -83.6256 338° Northwest 386 444 38,000  Level Jacksonville Center
Tue 01:09:45 PM 30.9322 -83.6747 338° Northwest 391 450 38,000  Level Jacksonville Center
Tue 01:10:45 PM 31.0217 -83.7192 337° Northwest 391 450 38,000  Level Jacksonville Center
Tue 01:11:45 PM 31.1278 -83.7686 338° Northwest 396 456 38,000  Level Jacksonville Center
Tue 01:12:45 PM 31.2319 -83.8183 338° Northwest 396 456 38,000  Level Jacksonville Center
Tue 01:13:45 PM 31.3358 -83.8703 337° Northwest 396 456 38,000  Level Jacksonville Center
Tue 01:15:17 PM 31.4961 -83.9489 337° Northwest 385 443 38,000  Level Atlanta Center
Tue 01:16:17 PM 31.6172 -83.9853 346° North 392 451 38,000  Level Atlanta Center
Tue 01:17:17 PM 31.7319 -84.0094 350° North 398 458 38,000  Level Atlanta Center
Tue 01:18:17 PM 31.8406 -84.0292 351° North 404 465 38,000  Level Atlanta Center
Tue 01:19:17 PM 31.9511 -84.0558 348° North 404 465 38,000  Level Atlanta Center
Tue 01:20:17 PM 32.0617 -84.0781 350° North 404 465 38,000  Level Atlanta Center
Tue 01:21:17 PM 32.1703 -84.1050 348° North 404 465 38,000  Level Atlanta Center
Tue 01:22:17 PM 32.2808 -84.1297 349° North 404 465 38,000  Level Atlanta Center
Tue 01:23:17 PM 32.3872 -84.1519 350° North 399 459 38,000  Level Atlanta Center
Tue 01:24:17 PM 32.4958 -84.1792 348° North 394 453 38,000  Level Atlanta Center
Tue 01:25:17 PM 32.6064 -84.2017 350° North 394 453 38,000  Level Atlanta Center
Tue 01:26:17 PM 32.7150 -84.2289 348° North 394 453 38,000  Level Atlanta Center
Tue 01:27:17 PM 32.8108 -84.2489 350° North 394 453 38,000  Level Atlanta Center
Tue 01:28:17 PM 32.9194 -84.2764 348° North 395 455 38,000  Level Atlanta Center
Tue 01:29:17 PM 33.0300 -84.2989 350° North 395 455 38,000  Level Atlanta Center
Tue 01:30:17 PM 33.1511 -84.3267 349° North 395 455 38,000  Level Atlanta Center
Tue 01:31:17 PM 33.2575 -84.3517 349° North 395 455 38,000  Level Atlanta Center
Tue 01:32:17 PM 33.3700 -84.3772 349° North 395 455 38,000  Level Atlanta Center
Tue 01:33:17 PM 33.4786 -84.4025 349° North 401 461 38,000  Level Atlanta Center
Tue 01:34:17 PM 33.5892 -84.4278 349° North 401 461 38,000  Level Atlanta Center
Tue 01:35:17 PM 33.6997 -84.4558 348° North 393 452 38,000  Level Atlanta Center
Tue 01:36:17 PM 33.8103 -84.4839 348° North 393 452 38,000  Level Atlanta Center
Tue 01:37:17 PM 33.9228 -84.5094 349° North 399 459 38,000  Level Atlanta Center
Tue 01:38:17 PM 34.0228 -84.5350 348° North 410 472 38,000  Level Atlanta Center
Tue 01:39:17 PM 34.1481 -84.5633 349° North 410 472 38,000  Level Atlanta Center
Tue 01:40:17 PM 34.2606 -84.5892 349° North 418 481 38,000  Level Atlanta Center
Tue 01:41:17 PM 34.3689 -84.6175 348° North 407 468 38,000  Level Atlanta Center
Tue 01:42:17 PM 34.4794 -84.6411 350° North 402 463 38,000  Level Atlanta Center
Tue 01:43:17 PM 34.5900 -84.6697 348° North 402 463 38,000  Level Atlanta Center
Tue 01:44:17 PM 34.6836 -84.6931 348° North 402 463 38,000  Level Atlanta Center
Tue 01:45:17 PM 34.7942 -84.7217 348° North 395 455 38,000  Level Atlanta Center
Tue 01:46:17 PM 34.9067 -84.7506 348° North 395 455 38,000  Level Atlanta Center
Tue 01:47:17 PM 35.0172 -84.7767 349° North 395 455 38,000  Level Atlanta Center
Tue 01:48:17 PM 35.1256 -84.8056 348° North 395 455 38,000  Level Atlanta Center
Tue 01:49:17 PM 35.2358 -84.8322 349° North 395 455 38,000  Level Atlanta Center
Tue 01:50:17 PM 35.3442 -84.8586 349° North 395 455 38,000  Level Atlanta Center
Tue 01:51:17 PM 35.4544 -84.8878 348° North 395 455 38,000  Level Atlanta Center
Tue 01:52:17 PM 35.5628 -84.9144 349° North 395 455 38,000  Level Atlanta Center
Tue 01:53:17 PM 35.6753 -84.9436 348° North 395 455 38,000  Level Atlanta Center
Tue 01:54:17 PM 35.7897 -84.9758 347° North 390 449 38,000  Level Atlanta Center
Tue 01:55:17 PM 35.9022 -85.0000 350° North 396 456 38,000  Level Atlanta Center
Tue 01:57:21 PM 36.1222 -85.0558 348° North 400 460 38,000  Level Indianapolis Center
Tue 01:58:23 PM 36.2311 -85.0844 348° North 399 459 38,000  Level Indianapolis Center
Tue 01:59:25 PM 36.3386 -85.1119 348° North 395 455 38,000  Level Indianapolis Center
Tue 02:00:27 PM 36.4456 -85.1386 349° North 392 451 38,000  Level Indianapolis Center
Tue 02:01:28 PM 36.5731 -85.1714 348° North 391 450 38,000  Level Indianapolis Center
Tue 02:02:30 PM 36.6792 -85.2000 348° North 389 448 38,000  Level Indianapolis Center
Tue 02:03:32 PM 36.7850 -85.2272 348° North 389 448 38,000  Level Indianapolis Center
Tue 02:04:33 PM 36.8903 -85.2544 348° North 388 447 38,000  Level Indianapolis Center
Tue 02:05:35 PM 36.9953 -85.2808 349° North 386 444 38,000  Level Indianapolis Center
Tue 02:06:37 PM 37.1147 -85.3133 348° North 389 448 38,000  Level Indianapolis Center
Tue 02:07:39 PM 37.2197 -85.3422 348° North 385 443 38,000  Level Indianapolis Center
Tue 02:08:40 PM 37.3267 -85.3703 348° North 389 448 38,000  Level Indianapolis Center
Tue 02:09:42 PM 37.4339 -85.3975 349° North 391 450 38,000  Level Indianapolis Center
Tue 02:10:44 PM 37.5428 -85.4253 349° North 395 455 38,000 -97 Level Indianapolis Center
Tue 02:11:46 PM 37.6483 -85.4561 347° North 390 449 37,800 -581 Descending Indianapolis Center
Tue 02:12:48 PM 37.7575 -85.4856 348° North 397 457 36,800 -976 Descending Indianapolis Center
Tue 02:13:49 PM 37.8803 -85.5164 349° North 417 480 35,800 -976 Descending Indianapolis Center
Tue 02:14:51 PM 37.9931 -85.5472 348° North 415 478 34,800 -871 Descending Indianapolis Center
Tue 02:15:53 PM 38.1053 -85.5772 348° North 412 474 34,000 -387 Descending Indianapolis Center
Tue 02:16:55 PM 38.2189 -85.5992 351° North 411 473 34,000  Level Indianapolis Center
Tue 02:17:56 PM 38.3553 -85.6250 352° North 410 472 34,000  Level Indianapolis Center
Tue 02:18:58 PM 38.4683 -85.6472 351° North 410 472 34,000  Level Indianapolis Center
Tue 02:20:00 PM 38.5808 -85.6692 351° North 407 468 34,000 -48 Level Indianapolis Center
Tue 02:21:02 PM 38.6936 -85.6906 352° North 409 471 33,900 -532 Descending Indianapolis Center
Tue 02:22:04 PM 38.8081 -85.7133 351° North 414 476 32,900 -976 Descending Indianapolis Center
Tue 02:23:05 PM 38.9231 -85.7356 351° North 416 479 31,900 -1,024 Descending Indianapolis Center
Tue 02:24:07 PM 39.0364 -85.7578 351° North 413 475 30,800 -919 Descending Indianapolis Center
Tue 02:25:09 PM 39.1492 -85.7814 351° North 409 471 30,000 -435 Descending Indianapolis Center
Tue 02:26:11 PM 39.2836 -85.8061 352° North 408 470 29,900 -484 Descending Indianapolis Center
Tue 02:27:13 PM 39.3967 -85.8281 351° North 409 471 29,000 -435 Descending Indianapolis Center
Tue 02:28:15 PM 39.5086 -85.8517 351° North 408 470 29,000  Level Indianapolis Center
Tue 02:29:16 PM 39.6203 -85.8744 351° North 405 466 29,000  Level Indianapolis Center
Tue 02:30:18 PM 39.7361 -85.8972 351° North 411 473 29,000 -677 Level Indianapolis Center
Tue 02:31:20 PM 39.8503 -85.9203 351° North 412 474 27,600 -1,790 Descending Indianapolis Center
Tue 02:32:22 PM 39.9631 -85.9425 351° North 416 479 25,300 -1,742 Descending Indianapolis Center
Tue 02:33:24 PM 40.0944 -85.9794 348° North 402 463 24,000 -716 Descending Indianapolis Center
Tue 02:34:11 PM 40.1542 -86.0100 339° North 392 451 24,000 -661 Level Chicago Center
Tue 02:35:13 PM 40.2761 -86.0656 341° North 387 445 22,800 -1,065 Descending Chicago Center
Tue 02:36:15 PM 40.3758 -86.1122 340° North 382 440 21,800 -960 Descending Chicago Center
Tue 02:37:18 PM 40.4753 -86.1594 340° North 381 438 20,800 -960 Descending Chicago Center
Tue 02:38:20 PM 40.5736 -86.2069 340° North 377 434 19,800 -968 Descending Chicago Center
Tue 02:39:22 PM 40.6717 -86.2522 341° North 376 433 18,800 -1,258 Descending Chicago Center
Tue 02:40:24 PM 40.7692 -86.2989 340° North 374 430 17,200 -2,016 Descending Chicago Center
Tue 02:41:27 PM 40.8867 -86.3547 340° North 373 429 14,600 -2,371 Descending Chicago Center
Tue 02:42:28 PM 40.9842 -86.4025 340° North 373 429 12,300 -1,756 Descending Chicago Center
Tue 02:43:30 PM 41.0694 -86.4653 331° Northwest 356 410 11,000 -823 Descending Chicago Center
Tue 02:44:32 PM 41.1286 -86.5558 311° West 328 377 10,600 -484 Descending Chicago Center
Tue 02:45:34 PM 41.1883 -86.6483 311° West 329 379 10,000 -290 Descending Chicago Center
Tue 02:46:36 PM 41.2494 -86.7433 311° West 325 374 10,000  Level Chicago Center
Tue 02:47:38 PM 41.3064 -86.8333 310° West 323 372 10,000 -144 Level Chicago Center
Tue 02:48:41 PM 41.3658 -86.9244 311° West 271 312 9,700 -672 Descending Chicago Center
Tue 02:49:43 PM 41.4103 -86.9939 310° West 251 289 8,600 -919 Descending Chicago Center
Tue 02:50:45 PM 41.4544 -87.0625 311° West 247 284 7,800 -919 Descending Chicago Center
Tue 02:51:47 PM 41.4969 -87.1278 311° West 241 277 6,700 -871 Descending Chicago Center
Tue 02:52:49 PM 41.5178 -87.2119 288° West 216 249 6,000 -339 Descending Chicago Center
Tue 02:53:51 PM 41.5156 -87.2706 267° West 179 206 6,000  Level Chicago Center
Tue 02:54:53 PM 41.4903 -87.3136 232° Southwest 160 184 6,000  Level Chicago Center
Tue 02:55:55 PM 41.5089 -87.3558 300° West 191 220 6,000  Level Chicago Center
Tue 02:56:57 PM 41.5442 -87.4047 314° West 188 216 6,000 -387 Level Chicago Center
Tue 02:57:59 PM 41.5781 -87.4550 312° West 185 213 5,200 -912 Descending Chicago Center
Tue 02:59:02 PM 41.6194 -87.5167 312° West 186 214 4,100 -576 Descending Chicago Center
Tue 03:00:04 PM 41.6536 -87.5683 312° West 187 215 4,000 -387 Descending Chicago Center
Tue 03:01:06 PM 41.6889 -87.6172 314° West 186 214 3,300 -906 Descending Chicago Center
Tue 03:01:50 PM 41.7167 -87.6500 319° Northwest 175 201 2,400 -923 Descending Chicago TRACON
Tue 03:02:50 PM 41.7500 -87.7000 312° West 135 155 1,700 -750 Descending Chicago TRACON
Tue 03:03:50 PM 41.7667 -87.7333 304° West 131 151 900 -800 Descending Chicago TRACON

Login

Don't have an account? Register now (free) for customized features, flight alerts, and more!